Terminal Aerodrome Forecast
Issued by NWS

Home | Current Version | Previous Version | Graphics & Text | Print | Product List | Glossary On
Versions: 1 2 3 4 5 6 7 8 9 10 11 12 13 14 15
000
FTUS43 KGRB 302320
TAFRHI
TAF
KRHI 302320Z 0100/0124 06008KT P6SM SCT040 BKN060
     FM010900 03004KT P6SM BKN040 BKN080 WS020/08030KT
     FM011300 04008KT P6SM SCT040 BKN100
     FM011600 05010KT P6SM SCT120 BKN200=

USA.gov is the U.S. government's official web portal to all federal, state and local government web resources and services.